Minster, Ohio
Current Conditions -  °F | °C
As of 9:33 PM on Saturday 20 Dec 2014 (Local Time) from KAXV Reporting Station
Overcast Overcast  
Wind Chill: 32°   Ceiling: 2700
Heat Index: 32°   Visibility: 7mi
Dew Point: 30°   Wind: 0mph
Humidity: 93%   Direction: NA
Pressure: 30.28"   Gusts: NA
Location:  40.39°N, 84.38°W
Report Text: KAXV 210233Z AUTO 00000KT 7SM OVC027 00/M01 A3028 RMK AO2
Loading
Personal Weather Stations






























Interactive Weather Map New forecast layout! Learn more

10-Day Weather Forecast

Advertisements
Track Severe Weather on mobile